Weather observations for the past three days for
Vandenberg Space Force Base
Metric (Imperial)
Date Time (pdt) Wind (kph) Vis. (km) Weather Sky Cond. Temperature (ºC) Relative Humidity Wind Chill (°C) Heat Index (°C) Pressure Precipitation (cm)
Air Dwpt 6 hour altimeter (cm) sea level (mb) 1 hr 3 hr 6 hr
Max. Min.
10 06:55 Calm 0.80 Fog VV002 10.3 10.1 99% 76.07 1014.6
10 05:55 N 6 1.01 Fog/Mist VV002 10.5 10.3 99% 76.05 1014.2
10 04:55 NE 6 0.80 Fog VV001 10.6 10.4 12.1 10.6 99% 76.05 1014.2
10 03:55 N 9 3.22 Fog/Mist OVC003 10.9 10.6 98% 76.02 1013.8
10 02:55 N 7 2.41 Fog/Mist OVC002 11.1 10.8 98% 76.05 1014.2
10 01:55 N 15 1.01 Fog/Mist VV002 11.2 10.9 98% 76.05 1014.2
10 00:55 N 15 1.01 Fog/Mist VV002 11.5 11.2 98% 76.07 1014.5
09 23:55 N 17 6.44 Fog/Mist OVC003 11.7 11.1 96% 76.1 1014.8
09 22:55 N 20 11.27 Overcast OVC003 12 11.2 13.6 11.9 95% 76.1 1014.9
09 21:55 N 20 11.27 Overcast OVC003 12.1 11.3 95% 76.1 1014.9
09 20:55 N 24 G 35 11.27 Overcast OVC003 12.4 11.5 94% 76.07 1014.5
09 19:55 N 19 8.05 Fog/Mist OVC003 12 11.1 94% 76.05 1014.2
09 18:55 NW 22 9.66 Fog/Mist OVC003 12.5 11.2 92% 76.02 1013.8
09 17:55 N 26 11.27 Overcast OVC005 12.5 10.7 89% 76.05 1014.2
09 16:55 N 28 14.48 Overcast OVC006 13.7 10.9 16.9 12.9 83% 76.05 1014.2
09 15:55 N 26 G 33 14.48 Partly Cloudy FEW260 FEW310 SCT350 14.8 11.2 79% 76.05 1014.2
09 14:55 NW 26 16.09 Overcast OVC010 15.2 10.6 74% 76.07 1014.5
09 13:55 NW 20 16.09 Partly Cloudy SCT007 15.2 11 76% 76.1 1014.8
09 12:55 NW 19 16.09 Overcast OVC008 14.6 11.2 80% 76.12 1015.2
09 11:55 NW 13 16.09 Overcast OVC006 13.8 11 83% 76.15 1015.5
09 10:55 N 13 14.48 Overcast OVC003 12.8 11.4 13 10.2 91% 76.17 1015.9
09 09:55 N 13 16.09 Overcast OVC003 11.8 11.5 98% 76.15 1015.5
09 08:55 N 17 1.21 Fog/Mist VV002 11.5 11.3 99% 76.17 1015.9
09 07:55 N 13 0.80 Fog VV001 10.9 10.6 98% 76.15 1015.5
09 06:55 NE 6 0.40 Fog VV001 10.4 10.1 98% 76.15 1015.6
09 05:55 Calm 0.40 Fog VV001 10.4 10.1 98% 76.1 1014.9
09 04:55 N 7 1.21 Fog/Mist VV002 10.8 10.3 12.2 10.8 97% 76.1 1014.8
09 03:55 NW 7 11.27 Overcast OVC003 11.4 10.8 96% 76.12 1015.2
09 02:55 N 11 14.48 Fair CLR 11.9 11 94% 76.15 1015.5
09 01:55 N 13 14.48 Fair CLR 11.9 11 94% 76.17 1015.8
09 00:55 N 15 16.09 Overcast OVC004 11.7 10.8 94% 76.2 1016.2
08 23:55 N 17 16.09 Overcast OVC003 11.8 11 95% 76.2 1016.2
08 22:55 NW 22 14.48 Overcast OVC003 11.8 11 14.3 11.7 95% 76.23 1016.5
08 21:55 N 19 12.87 Overcast OVC002 11.8 11 95% 76.23 1016.5
08 20:55 N 20 14.48 Overcast OVC003 12.1 11.2 94% 76.2 1016.2
08 19:55 NW 19 14.48 Overcast OVC005 12.2 10.9 92% 76.17 1015.9
08 18:55 NW 20 8.05 Fog/Mist OVC006 12.3 10.7 90% 76.15 1015.5
08 17:55 N 24 11.27 Overcast OVC007 13.5 11.2 86% 76.17 1015.9
08 16:55 NW 28 G 35 9.66 Fog/Mist BKN007 13.9 11.1 83% 76.17 1015.9
08 15:55 N 28 9.66 Fog/Mist BKN008 15.3 11.5 78% 76.23 1016.5
08 14:55 NW 30 G 35 9.66 Fog/Mist BKN008 15.4 11.4 77% 76.3 1017.6
08 13:56 NW 26 9.66 Fog/Mist BKN011 15.4 11.2 76% 76.33 1017.9
08 12:55 NW 22 9.66 Fog/Mist BKN010 15.5 11.1 75% 76.33 1017.9
08 11:55 NW 19 9.66 Fog/Mist BKN008 14.4 10.8 79% 76.38 1018.6
08 10:55 NW 17 12.87 Overcast OVC007 13.6 10.8 13.8 11.1 83% 76.4 1018.9
08 09:55 NW 19 8.05 Fog/Mist OVC006 13.3 11.2 87% 76.4 1018.9
08 08:55 NW 11 6.44 Fog/Mist OVC005 11.9 11 94% 76.38 1018.6
08 07:55 N 17 4.83 Fog/Mist OVC003 11.5 11.2 98% 76.38 1018.6
08 06:55 N 15 2.62 Fog/Mist OVC002 11.5 11.2 98% 76.35 1018.2
08 05:55 NW 15 2.82 Fog/Mist OVC001 11.2 10.9 98% 76.33 1017.9
08 04:55 N 15 4.83 Fog/Mist OVC002 11.5 11.2 12.3 11.3 98% 76.33 1017.9
08 03:55 NW 15 6.44 Fog/Mist OVC003 11.8 11.3 97% 76.3 1017.6
08 02:55 NW 15 8.05 Fog/Mist OVC002 11.7 11.2 97% 76.33 1017.9
08 01:55 N 17 16.09 Overcast OVC003 11.6 10.8 95% 76.33 1017.9
08 00:55 N 17 16.09 Overcast OVC004 12.1 11.3 95% 76.33 1017.9
07 23:55 N 19 14.48 Overcast OVC003 12.2 11.4 95% 76.33 1017.9
07 22:55 N 17 14.48 Overcast OVC003 11.8 11.2 14.2 11.7 96% 76.33 1017.9
07 21:55 N 17 16.09 Overcast OVC004 12 11.1 94% 76.33 1017.9
07 20:55 N 17 16.09 Overcast OVC005 12.2 11.1 93% 76.3 1017.6
07 19:55 NW 22 12.87 Overcast OVC007 12.5 11.1 91% 76.28 1017.2
07 18:55 NW 30 G 39 16.09 Overcast OVC007 13.5 11.5 88% 76.25 1016.9
07 17:55 NW 26 16.09 Overcast OVC006 14.1 11.8 86% 76.25 1016.9
07 16:55 NW 26 4.83 Fog/Mist FEW001 OVC004 14.1 12.1 15.6 13.1 88% 76.25 1016.9
07 15:55 NW 20 4.83 Fog/Mist OVC004 14.9 12.6 86% 76.25 1016.8
07 14:55 NW 22 G 31 4.83 Fog/Mist OVC005 15.4 12.5 83% 76.28 1017.2
07 13:55 NW 22 4.83 Fog/Mist OVC004 15.4 12.7 84% 76.3 1017.5
07 12:55 NW 17 4.02 Fog/Mist OVC003 14.8 12.5 86% 76.33 1017.9
07 11:55 NW 19 4.02 Fog/Mist OVC003 14 12 88% 76.33 1017.9
07 10:55 NW 15 11.27 Mostly Cloudy BKN007 14.2 11.3 15.3 11.7 83% 76.33 1017.9
07 09:55 N 6 9.66 Fog/Mist OVC002 13.4 12.4 94% 76.35 1018.2
07 08:55 W 6 1.61 Fog/Mist OVC002 12.6 12.3 98% 76.35 1018.3
Date Time (pdt) Wind (kph) Vis. (km) Weather Sky Cond. Air Dwpt Max. Min. Relative Humidity Wind Chill (°C) Heat Index (°C) altimeter (cm) sea level (mb) 1 hr 3 hr 6 hr
6 hour
Temperature (ºC) Pressure Precipitation (cm)